Time;durP1;ratioP1;P1;durP2;ratioP2;P2;SDS_P1;SDS_P2;PMS_P1;PMS_P2;Temp;Humidity;BMP_temperature;BMP_pressure;BME280_temperature;BME280_humidity;BME280_pressure;Samples;Min_cycle;Max_cycle;Signal;HPM_P1;HPM_P2
2021/04/21 00:00:22;;;;;;;16.55;10.23;;;6.40;99.90;;;;;;5035848;28;20034;-73
2021/04/21 00:02:52;;;;;;;17.48;10.85;;;6.50;99.90;;;;;;5034605;28;20131;-73
2021/04/21 00:05:21;;;;;;;15.07;10.15;;;6.50;99.90;;;;;;5035793;28;20029;-73
2021/04/21 00:07:49;;;;;;;15.10;9.63;;;6.50;99.90;;;;;;5034520;28;20499;-73
2021/04/21 00:10:18;;;;;;;13.95;8.82;;;6.50;99.90;;;;;;5034412;28;20035;-73
2021/04/21 00:12:45;;;;;;;11.57;8.70;;;6.40;99.90;;;;;;5035684;28;20105;-73
2021/04/21 00:15:14;;;;;;;15.05;9.55;;;6.20;99.90;;;;;;5035643;28;20528;-73
2021/04/21 00:17:46;;;;;;;16.30;9.65;;;6.00;99.90;;;;;;5034364;28;20022;-73
2021/04/21 00:20:13;;;;;;;15.30;9.68;;;6.00;99.90;;;;;;5035553;28;20477;-74
2021/04/21 00:22:40;;;;;;;14.63;9.90;;;6.00;99.90;;;;;;5035426;28;20040;-73
2021/04/21 00:25:07;;;;;;;13.45;9.23;;;6.10;99.90;;;;;;5034438;28;20132;-73
2021/04/21 00:27:34;;;;;;;13.38;9.10;;;6.00;99.90;;;;;;5035395;28;20029;-73
2021/04/21 00:30:06;;;;;;;12.98;8.85;;;6.00;99.90;;;;;;5035354;28;20092;-73
2021/04/21 00:32:47;;;;;;;14.13;9.20;;;6.10;99.90;;;;;;5035313;28;20547;-72
2021/04/21 00:35:23;;;;;;;15.82;9.35;;;6.00;99.90;;;;;;5034002;28;20088;-73
2021/04/21 00:37:55;;;;;;;26.88;10.85;;;5.90;99.90;;;;;;5035297;28;20033;-73
2021/04/21 00:40:45;;;;;;;15.23;9.57;;;5.80;99.90;;;;;;5033948;28;20022;-73
2021/04/21 00:43:23;;;;;;;15.68;9.45;;;5.60;99.90;;;;;;5016841;28;20073;-73
2021/04/21 00:46:17;;;;;;;13.18;8.93;;;5.50;99.90;;;;;;5034959;28;20045;-73
2021/04/21 00:48:49;;;;;;;14.60;9.75;;;5.40;99.90;;;;;;5035033;28;20499;-73
2021/04/21 00:51:25;;;;;;;14.15;9.38;;;5.30;99.90;;;;;;5034892;28;20049;-73
2021/04/21 00:54:23;;;;;;;13.60;9.60;;;5.40;99.90;;;;;;5034975;28;20173;-73
2021/04/21 00:57:12;;;;;;;20.77;9.93;;;5.50;99.90;;;;;;5034914;28;20029;-73
2021/04/21 00:59:54;;;;;;;16.20;10.23;;;5.60;99.90;;;;;;5034779;28;20362;-73
2021/04/21 01:02:22;;;;;;;;;;;5.50;99.90;;;;;;5035231;28;20025;-73
2021/04/21 01:04:48;;;;;;;17.92;9.85;;;5.50;99.90;;;;;;5033691;28;19909;-73
2021/04/21 01:07:16;;;;;;;13.82;9.40;;;5.50;99.90;;;;;;5034728;28;20451;-73
2021/04/21 01:09:46;;;;;;;15.18;9.60;;;5.50;99.90;;;;;;5034606;28;20025;-73
2021/04/21 01:12:15;;;;;;;13.13;9.55;;;5.50;99.90;;;;;;5034697;28;20097;-73
2021/04/21 01:14:46;;;;;;;15.23;9.27;;;5.40;99.90;;;;;;5034414;28;20036;-72
2021/04/21 01:17:15;;;;;;;15.05;10.75;;;5.60;99.90;;;;;;5033229;28;20026;-73
2021/04/21 01:19:44;;;;;;;16.50;10.40;;;5.70;99.90;;;;;;5033136;28;20481;-73
2021/04/21 01:22:37;;;;;;;15.35;10.30;;;5.80;99.90;;;;;;5034397;28;20022;-73
2021/04/21 01:25:34;;;;;;;12.43;9.13;;;5.90;99.90;;;;;;5033316;28;20028;-72
2021/04/21 01:28:05;;;;;;;13.93;8.95;;;5.90;99.90;;;;;;5033191;28;20036;-73
2021/04/21 01:30:33;;;;;;;9.88;7.20;;;5.80;99.90;;;;;;5033034;28;20500;-73
2021/04/21 01:33:02;;;;;;;15.27;9.80;;;5.80;99.90;;;;;;5034103;28;20030;-73
2021/04/21 01:35:29;;;;;;;14.13;9.85;;;5.90;99.90;;;;;;5034146;28;20056;-73
2021/04/21 01:38:00;;;;;;;14.18;9.43;;;5.80;99.90;;;;;;5034150;28;20026;-72
2021/04/21 01:40:30;;;;;;;14.13;8.85;;;5.70;99.90;;;;;;5034053;28;20385;-73
2021/04/21 01:43:01;;;;;;;13.48;8.93;;;5.70;99.90;;;;;;5034296;28;20021;-73
2021/04/21 01:45:29;;;;;;;15.05;8.23;;;5.60;99.90;;;;;;5032752;28;20022;-73
2021/04/21 01:48:02;;;;;;;13.55;9.43;;;5.40;99.90;;;;;;5033958;28;20076;-73
2021/04/21 01:50:27;;;;;;;13.90;8.77;;;5.40;99.90;;;;;;5032561;28;20055;-73
2021/04/21 01:53:24;;;;;;;14.13;9.38;;;5.30;99.90;;;;;;5033795;28;20112;-73
2021/04/21 01:56:07;;;;;;;14.07;9.95;;;5.20;99.90;;;;;;5033770;28;20026;-73
2021/04/21 01:58:55;;;;;;;14.40;9.40;;;5.30;99.90;;;;;;5032534;28;20029;-73
2021/04/21 02:01:41;;;;;;;16.05;10.15;;;5.30;99.90;;;;;;5033618;28;20029;-73
2021/04/21 02:04:31;;;;;;;15.35;9.77;;;5.30;99.90;;;;;;5033719;28;20104;-73
2021/04/21 02:07:16;;;;;;;16.50;10.23;;;5.30;99.90;;;;;;5033493;28;20033;-73
2021/04/21 02:09:56;;;;;;;15.38;8.77;;;5.40;99.90;;;;;;5033604;28;20022;-73
2021/04/21 02:12:46;;;;;;;13.23;8.98;;;5.40;99.90;;;;;;5033452;28;20400;-72
2021/04/21 02:15:39;;;;;;;14.32;9.25;;;5.50;99.90;;;;;;5033292;28;20029;-73
2021/04/21 02:18:21;;;;;;;12.85;9.38;;;5.50;99.90;;;;;;4992535;28;20517;-73
2021/04/21 02:21:01;;;;;;;10.80;7.43;;;5.50;99.90;;;;;;5033108;28;20543;-73
2021/04/21 02:23:38;;;;;;;15.52;8.98;;;5.50;99.90;;;;;;5015558;28;20054;-73
2021/04/21 02:26:26;;;;;;;11.10;8.63;;;5.50;99.90;;;;;;5033167;28;20024;-72
2021/04/21 02:29:29;;;;;;;11.90;7.97;;;5.60;99.90;;;;;;5033083;28;20032;-73
2021/04/21 02:32:09;;;;;;;9.90;7.60;;;5.80;99.90;;;;;;5031711;28;20064;-73
2021/04/21 02:34:53;;;;;;;13.73;8.55;;;5.80;99.90;;;;;;5033019;28;20029;-73
2021/04/21 02:37:19;;;;;;;11.27;7.90;;;5.60;99.90;;;;;;5032920;28;20108;-73
2021/04/21 02:39:56;;;;;;;9.98;7.43;;;5.30;99.90;;;;;;5032951;28;20053;-72
2021/04/21 02:42:56;;;;;;;10.93;7.45;;;5.10;99.90;;;;;;5031557;28;20064;-73
2021/04/21 02:45:46;;;;;;;14.15;7.63;;;5.10;99.90;;;;;;5032842;28;20022;-73
2021/04/21 02:48:43;;;;;;;12.90;7.47;;;5.20;99.90;;;;;;5031653;28;20477;-73
2021/04/21 02:51:25;;;;;;;11.48;8.13;;;5.40;99.90;;;;;;5031398;28;20025;-73
2021/04/21 02:54:29;;;;;;;11.40;8.35;;;5.50;99.90;;;;;;5032811;28;20108;-72
2021/04/21 02:57:13;;;;;;;9.75;7.15;;;5.60;99.90;;;;;;5032552;28;20126;-73
2021/04/21 02:59:44;;;;;;;13.55;8.05;;;5.60;99.90;;;;;;5032688;28;20651;-73
2021/04/21 03:02:14;;;;;;;12.93;8.30;;;5.60;99.90;;;;;;5032568;28;20033;-73
2021/04/21 03:05:06;;;;;;;10.23;7.30;;;5.40;99.90;;;;;;5032520;28;20499;-73
2021/04/21 03:08:09;;;;;;;12.77;7.82;;;5.50;99.90;;;;;;5018082;28;20037;-73
2021/04/21 03:10:49;;;;;;;14.55;7.47;;;5.50;99.90;;;;;;5031198;28;20053;-72
2021/04/21 03:13:28;;;;;;;11.95;7.07;;;5.60;99.90;;;;;;5031024;28;20079;-73
2021/04/21 03:16:01;;;;;;;20.55;7.35;;;5.60;99.90;;;;;;5032305;28;20021;-72
2021/04/21 03:18:30;;;;;;;11.50;6.80;;;5.40;99.90;;;;;;5032402;28;20432;-73
2021/04/21 03:21:07;;;;;;;13.15;8.32;;;5.30;99.90;;;;;;5030916;28;20076;-73
2021/04/21 03:23:37;;;;;;;12.25;8.20;;;5.60;99.90;;;;;;5032373;28;20025;-72
2021/04/21 03:26:03;;;;;;;11.95;7.45;;;5.60;99.90;;;;;;5030611;28;20052;-73
2021/04/21 03:28:33;;;;;;;10.07;7.15;;;5.70;99.90;;;;;;5031834;28;20045;-73
2021/04/21 03:31:03;;;;;;;8.75;6.72;;;5.60;99.90;;;;;;5030868;28;20021;-73
2021/04/21 03:33:48;;;;;;;10.90;6.85;;;5.40;99.90;;;;;;5032012;28;20064;-73
2021/04/21 03:36:18;;;;;;;15.82;7.35;;;5.30;99.90;;;;;;5014388;28;20033;-73
2021/04/21 03:38:46;;;;;;;10.10;6.40;;;5.20;99.90;;;;;;5030946;28;20047;-72
2021/04/21 03:41:12;;;;;;;10.77;6.72;;;5.20;99.90;;;;;;5031843;28;20113;-72
2021/04/21 03:43:40;;;;;;;10.30;7.25;;;5.20;99.90;;;;;;5032076;28;20025;-73
2021/04/21 03:46:07;;;;;;;12.65;7.25;;;5.20;99.90;;;;;;5030736;28;20033;-73
2021/04/21 03:48:36;;;;;;;9.05;7.07;;;5.30;99.90;;;;;;5030602;28;20022;-73
2021/04/21 03:51:02;;;;;;;9.85;7.15;;;5.40;99.90;;;;;;5031998;28;20397;-73
2021/04/21 03:53:34;;;;;;;9.60;7.25;;;5.30;99.90;;;;;;5030658;28;20033;-72
2021/04/21 03:56:02;;;;;;;17.73;7.05;;;5.40;99.90;;;;;;5031916;28;20505;-73
2021/04/21 03:58:30;;;;;;;9.05;6.97;;;5.50;99.90;;;;;;5031850;28;20025;-73
2021/04/21 04:01:07;;;;;;;9.32;6.65;;;5.60;99.90;;;;;;5030476;28;20025;-73
2021/04/21 04:03:33;;;;;;;9.70;7.43;;;5.60;99.90;;;;;;5030624;28;20022;-73
2021/04/21 04:06:07;;;;;;;10.20;6.45;;;5.50;99.90;;;;;;5030619;28;20117;-73
2021/04/21 04:08:57;;;;;;;9.80;7.10;;;5.50;99.90;;;;;;5031714;28;20033;-73
2021/04/21 04:11:27;;;;;;;7.97;6.50;;;5.50;99.90;;;;;;5031755;28;20025;-73
2021/04/21 04:14:00;;;;;;;15.05;6.57;;;5.20;99.90;;;;;;5031682;28;20036;-72
2021/04/21 04:16:29;;;;;;;10.27;6.97;;;5.10;99.90;;;;;;5031792;28;20160;-73
2021/04/21 04:18:57;;;;;;;12.65;7.18;;;5.10;99.90;;;;;;5031690;28;20028;-73
2021/04/21 04:21:31;;;;;;;9.15;6.50;;;5.20;99.90;;;;;;5030414;28;20107;-73
2021/04/21 04:23:59;;;;;;;10.95;6.85;;;5.20;99.90;;;;;;5030385;28;20179;-72
2021/04/21 04:26:27;;;;;;;10.20;6.18;;;5.10;99.90;;;;;;5031579;28;20366;-72
2021/04/21 04:28:54;;;;;;;10.82;6.57;;;5.20;99.90;;;;;;5031568;28;20025;-72
2021/04/21 04:31:21;;;;;;;19.05;7.63;;;5.30;99.90;;;;;;5030372;28;20057;-73
2021/04/21 04:33:51;;;;;;;19.90;7.40;;;5.30;99.90;;;;;;5030102;28;20041;-73
2021/04/21 04:36:17;;;;;;;13.68;7.80;;;5.30;99.90;;;;;;5030396;28;20101;-73
2021/04/21 04:38:43;;;;;;;16.63;7.55;;;5.10;99.90;;;;;;5031872;28;20032;-73
2021/04/21 04:41:10;;;;;;;19.92;8.35;;;5.00;99.90;;;;;;5033764;28;20025;-73
2021/04/21 04:43:38;;;;;;;22.55;7.28;;;5.10;99.90;;;;;;5035061;28;20419;-73
2021/04/21 04:46:06;;;;;;;14.77;7.10;;;5.20;99.90;;;;;;5033789;28;20029;-73
2021/04/21 04:48:45;;;;;;;20.42;7.70;;;5.30;99.90;;;;;;5033793;28;20029;-73
2021/04/21 04:51:12;;;;;;;15.25;7.32;;;5.30;99.90;;;;;;5033841;28;20076;-72
2021/04/21 04:53:40;;;;;;;13.60;7.10;;;5.30;99.90;;;;;;5034912;28;20029;-73
2021/04/21 04:56:06;;;;;;;15.77;7.70;;;5.30;99.90;;;;;;5033575;28;20025;-73
2021/04/21 04:58:33;;;;;;;17.05;6.93;;;5.40;99.90;;;;;;5033688;28;20025;-73
2021/04/21 05:01:04;;;;;;;16.45;6.97;;;5.50;99.90;;;;;;5034823;28;20022;-73
2021/04/21 05:03:35;;;;;;;12.00;7.10;;;5.40;99.90;;;;;;5034842;28;20021;-73
2021/04/21 05:06:02;;;;;;;10.05;7.55;;;5.40;99.90;;;;;;5033465;28;20033;-73
2021/04/21 05:08:39;;;;;;;11.77;7.15;;;5.50;99.90;;;;;;5034726;28;20484;-73
2021/04/21 05:11:07;;;;;;;21.45;7.50;;;5.70;99.90;;;;;;5034711;28;20542;-73
2021/04/21 05:13:40;;;;;;;24.85;6.68;;;6.00;99.90;;;;;;5034476;28;20496;-72
2021/04/21 05:16:06;;;;;;;11.63;6.53;;;6.10;99.90;;;;;;5033172;28;20596;-73
2021/04/21 05:18:50;;;;;;;11.80;6.65;;;6.10;99.90;;;;;;5033087;28;20037;-73
2021/04/21 05:21:54;;;;;;;12.40;6.30;;;6.10;99.90;;;;;;5033154;28;20478;-73
2021/04/21 05:24:29;;;;;;;29.95;7.90;;;6.20;99.90;;;;;;5003659;28;20041;-73
2021/04/21 05:27:25;;;;;;;27.70;8.18;;;6.20;99.90;;;;;;5032855;28;20029;-73
2021/04/21 05:30:24;;;;;;;13.60;6.60;;;6.20;99.90;;;;;;5033970;28;20214;-73
2021/04/21 05:33:44;;;;;;;10.13;7.13;;;6.20;99.90;;;;;;5034211;28;20080;-73
2021/04/21 05:36:36;;;;;;;26.80;6.72;;;6.20;99.90;;;;;;5024042;22;20135;-72
2021/04/21 05:39:20;;;;;;;19.63;7.30;;;6.20;99.90;;;;;;5012331;28;20507;-72
2021/04/21 05:42:13;;;;;;;12.05;8.27;;;6.20;99.90;;;;;;5015359;28;20046;-72
2021/04/21 05:45:14;;;;;;;12.57;6.63;;;6.10;99.90;;;;;;5033654;28;20029;-71
2021/04/21 05:47:54;;;;;;;12.02;6.95;;;6.10;99.90;;;;;;5014668;28;20416;-71
2021/04/21 05:50:48;;;;;;;13.88;6.82;;;6.30;99.90;;;;;;4997551;28;20026;-71
2021/04/21 05:53:46;;;;;;;20.60;7.20;;;6.50;99.90;;;;;;5028862;28;20024;-72
2021/04/21 05:56:36;;;;;;;12.55;6.82;;;6.60;99.90;;;;;;4985108;28;20499;-72
2021/04/21 05:59:27;;;;;;;15.23;6.90;;;6.70;99.90;;;;;;5013797;28;20022;-72
2021/04/21 06:01:54;;;;;;;13.15;7.03;;;6.80;99.90;;;;;;5013791;28;20038;-72
2021/04/21 06:04:22;;;;;;;12.57;6.22;;;7.00;99.90;;;;;;4996179;28;20364;-72
2021/04/21 06:06:48;;;;;;;9.82;5.93;;;7.20;99.90;;;;;;5013351;28;20026;-71
2021/04/21 06:09:14;;;;;;;8.18;6.18;;;7.20;99.90;;;;;;5013470;28;20028;-71
2021/04/21 06:11:40;;;;;;;9.00;6.28;;;7.10;99.90;;;;;;5011996;28;20037;-71
2021/04/21 06:14:07;;;;;;;12.40;6.18;;;7.00;99.90;;;;;;5033254;28;20063;-72
2021/04/21 06:16:35;;;;;;;12.13;6.10;;;7.20;99.90;;;;;;5032965;28;20121;-72
2021/04/21 06:19:04;;;;;;;12.20;6.30;;;7.30;99.90;;;;;;5021060;28;20025;-71
2021/04/21 06:21:34;;;;;;;12.48;6.50;;;7.40;99.90;;;;;;5013362;28;20504;-72
2021/04/21 06:24:00;;;;;;;11.05;5.68;;;7.50;99.90;;;;;;5012414;28;20087;-72
2021/04/21 06:26:29;;;;;;;11.68;6.10;;;7.70;99.90;;;;;;5013301;28;20488;-71
2021/04/21 06:29:01;;;;;;;9.48;5.35;;;7.70;99.90;;;;;;5011852;28;20018;-71
2021/04/21 06:31:32;;;;;;;10.18;5.82;;;7.90;99.90;;;;;;5013651;28;20327;-71
2021/04/21 06:33:58;;;;;;;13.53;5.67;;;8.00;99.90;;;;;;5013173;28;20022;-71
2021/04/21 06:36:57;;;;;;;9.65;6.28;;;8.10;99.90;;;;;;5011617;28;20304;-72
2021/04/21 06:39:24;;;;;;;7.53;5.38;;;8.10;99.90;;;;;;5013173;28;20030;-71
2021/04/21 06:41:55;;;;;;;20.17;6.68;;;8.20;99.90;;;;;;5011516;28;20026;-72
2021/04/21 06:44:42;;;;;;;16.92;6.10;;;8.40;99.90;;;;;;5013034;28;20021;-72
2021/04/21 06:47:27;;;;;;;8.88;5.22;;;8.50;99.70;;;;;;5011524;28;20425;-72
2021/04/21 06:50:05;;;;;;;7.13;4.78;;;8.70;98.60;;;;;;5014572;28;20025;-72
2021/04/21 06:52:39;;;;;;;12.07;5.30;;;8.80;95.70;;;;;;5014826;28;20053;-72
2021/04/21 06:55:07;;;;;;;8.50;5.28;;;8.80;94.80;;;;;;5018169;28;20116;-71
2021/04/21 06:57:33;;;;;;;9.02;4.50;;;8.80;94.60;;;;;;5017538;28;20413;-72
2021/04/21 07:00:11;;;;;;;5.35;4.40;;;8.90;94.60;;;;;;5020101;28;20049;-71
2021/04/21 07:02:40;;;;;;;6.90;4.45;;;9.10;93.90;;;;;;5025114;28;20037;-71
2021/04/21 07:05:24;;;;;;;4.97;4.18;;;9.20;92.90;;;;;;5018233;28;20524;-72
2021/04/21 07:07:50;;;;;;;12.55;4.80;;;9.50;92.20;;;;;;5017523;28;20022;-72
2021/04/21 07:10:17;;;;;;;8.85;4.88;;;9.60;92.30;;;;;;5030460;28;20029;-72
2021/04/21 07:12:46;;;;;;;5.95;4.88;;;9.80;92.00;;;;;;5022651;28;20030;-72
2021/04/21 07:15:13;;;;;;;8.88;5.05;;;9.90;90.80;;;;;;5022950;28;20026;-72
2021/04/21 07:17:39;;;;;;;16.02;4.32;;;10.10;90.30;;;;;;5031473;28;20481;-72
2021/04/21 07:20:07;;;;;;;9.48;4.13;;;10.30;89.80;;;;;;5017979;28;20545;-72
2021/04/21 07:22:33;;;;;;;12.13;5.72;;;10.40;88.60;;;;;;5024383;28;20048;-72
2021/04/21 07:24:59;;;;;;;8.05;4.43;;;10.50;86.20;;;;;;5029223;28;20025;-74
2021/04/21 07:27:25;;;;;;;6.38;4.47;;;10.70;85.10;;;;;;5016161;28;20025;-73
2021/04/21 07:29:50;;;;;;;6.82;5.18;;;10.80;83.80;;;;;;5021831;28;20040;-73
2021/04/21 07:32:23;;;;;;;12.30;5.05;;;11.10;80.50;;;;;;5019792;28;20026;-72
2021/04/21 07:35:01;;;;;;;7.63;4.63;;;11.20;76.50;;;;;;5018791;28;20041;-72
2021/04/21 07:37:33;;;;;;;9.15;4.05;;;11.20;75.90;;;;;;5019370;28;20025;-72
2021/04/21 07:39:59;;;;;;;6.60;4.82;;;11.30;73.60;;;;;;5019602;28;20057;-72
2021/04/21 07:42:25;;;;;;;8.70;5.28;;;11.40;70.90;;;;;;5017984;28;20128;-72
2021/04/21 07:44:53;;;;;;;8.35;5.55;;;11.50;70.50;;;;;;4999349;28;20366;-72
2021/04/21 07:47:24;;;;;;;10.50;6.22;;;11.80;71.80;;;;;;5024716;28;20022;-72
2021/04/21 07:49:56;;;;;;;12.65;6.95;;;12.10;72.10;;;;;;5031668;28;20021;-72
2021/04/21 07:52:30;;;;;;;14.43;6.97;;;12.30;70.30;;;;;;5021623;28;20418;-72
2021/04/21 07:55:07;;;;;;;11.07;8.10;;;12.40;70.30;;;;;;5021327;28;20552;-72
2021/04/21 07:57:33;;;;;;;13.60;7.72;;;12.60;68.90;;;;;;5018537;28;20362;-72
2021/04/21 08:00:00;;;;;;;11.18;7.70;;;12.70;67.70;;;;;;5015155;28;20033;-73
2021/04/21 08:02:30;;;;;;;35.83;9.50;;;12.90;67.60;;;;;;5020708;28;20026;-72
2021/04/21 08:05:02;;;;;;;16.60;8.13;;;13.00;67.60;;;;;;5013674;28;20041;-72
2021/04/21 08:07:32;;;;;;;14.10;8.65;;;13.30;67.00;;;;;;5018435;28;20048;-72
2021/04/21 08:09:59;;;;;;;16.65;8.82;;;13.50;65.80;;;;;;5024842;28;20061;-72
2021/04/21 08:12:30;;;;;;;18.38;7.32;;;13.60;66.40;;;;;;4994184;28;20033;-72
2021/04/21 08:14:59;;;;;;;29.10;9.43;;;13.70;65.10;;;;;;5020477;28;20037;-72
2021/04/21 08:17:25;;;;;;;23.50;7.70;;;13.70;63.70;;;;;;5027168;28;20321;-72
2021/04/21 08:19:57;;;;;;;9.50;7.10;;;13.60;64.30;;;;;;5023862;28;20026;-71
2021/04/21 08:22:28;;;;;;;8.48;7.47;;;13.80;63.40;;;;;;5021333;28;20048;-72
2021/04/21 08:24:56;;;;;;;14.43;7.95;;;14.00;63.40;;;;;;5019547;28;20045;-72
2021/04/21 08:27:24;;;;;;;14.10;7.20;;;14.10;61.60;;;;;;5019357;28;20020;-72
2021/04/21 08:29:51;;;;;;;10.18;7.05;;;14.00;61.90;;;;;;5018594;28;20032;-72
2021/04/21 08:32:19;;;;;;;9.93;6.65;;;14.40;63.00;;;;;;5015485;28;20022;-72
2021/04/21 08:34:47;;;;;;;12.00;6.93;;;14.60;61.90;;;;;;5013771;28;20057;-72
2021/04/21 08:37:13;;;;;;;11.13;7.00;;;14.60;61.20;;;;;;5019632;28;20024;-72
2021/04/21 08:39:40;;;;;;;9.70;6.57;;;14.80;61.90;;;;;;5017640;28;20022;-71
2021/04/21 08:42:09;;;;;;;14.98;7.05;;;15.20;60.20;;;;;;5025061;28;20033;-72
2021/04/21 08:44:40;;;;;;;11.32;7.20;;;15.30;58.90;;;;;;5011013;28;20046;-73
2021/04/21 08:47:07;;;;;;;11.87;7.50;;;15.40;58.50;;;;;;5017779;28;20026;-73
2021/04/21 08:49:35;;;;;;;12.98;6.63;;;15.50;59.90;;;;;;5024776;28;20350;-72
2021/04/21 08:52:02;;;;;;;9.93;6.75;;;15.70;58.10;;;;;;5029488;28;20029;-72
2021/04/21 08:54:31;;;;;;;7.80;6.43;;;15.80;56.60;;;;;;5019181;28;20025;-73
2021/04/21 08:56:58;;;;;;;9.40;6.75;;;15.60;56.60;;;;;;5027263;28;20029;-72
2021/04/21 08:59:24;;;;;;;8.95;6.45;;;15.80;56.60;;;;;;5022669;28;20029;-73
2021/04/21 09:01:50;;;;;;;126.72;10.90;;;16.00;56.40;;;;;;5023420;28;20128;-72
2021/04/21 09:04:17;;;;;;;129.35;13.07;;;16.30;56.50;;;;;;5025050;28;20036;-72
2021/04/21 09:06:45;;;;;;;25.73;8.82;;;16.50;56.00;;;;;;5027956;28;20041;-72
2021/04/21 09:09:11;;;;;;;40.25;8.65;;;16.00;56.20;;;;;;5013710;28;20113;-72
2021/04/21 09:11:37;;;;;;;44.45;8.60;;;16.00;56.80;;;;;;5023735;28;20064;-72
2021/04/21 09:14:04;;;;;;;9.13;6.72;;;16.10;56.70;;;;;;5019969;28;20057;-72
2021/04/21 09:16:29;;;;;;;23.52;7.45;;;16.60;55.90;;;;;;5009314;28;20044;-72
2021/04/21 09:18:56;;;;;;;40.53;8.80;;;16.60;53.00;;;;;;5019677;28;20105;-72
2021/04/21 09:21:31;;;;;;;13.05;7.25;;;16.70;54.40;;;;;;5024437;28;20109;-72
2021/04/21 09:23:58;;;;;;;49.45;8.35;;;17.00;53.30;;;;;;5029019;28;20499;-72
2021/04/21 09:26:27;;;;;;;12.18;8.20;;;17.20;52.00;;;;;;5033769;28;20018;-73
2021/04/21 09:28:54;;;;;;;12.60;7.85;;;17.40;52.10;;;;;;5034412;28;20041;-73
2021/04/21 09:31:22;;;;;;;16.27;7.88;;;17.70;51.60;;;;;;5033733;28;20170;-75
2021/04/21 09:34:07;;;;;;;15.05;8.20;;;17.90;51.40;;;;;;5026751;28;20022;-74
2021/04/21 09:36:54;;;;;;;18.48;7.20;;;18.20;51.20;;;;;;5027319;28;20029;-73
2021/04/21 09:39:23;;;;;;;10.52;7.50;;;18.30;49.30;;;;;;5027075;28;20060;-73
2021/04/21 09:41:57;;;;;;;15.70;8.00;;;18.30;50.00;;;;;;5023911;28;20030;-73
2021/04/21 09:44:30;;;;;;;23.67;8.27;;;18.70;50.90;;;;;;5023082;28;20034;-74
2021/04/21 09:47:08;;;;;;;10.60;7.65;;;19.00;49.00;;;;;;5018952;28;20606;-74
2021/04/21 09:49:36;;;;;;;12.05;6.60;;;19.10;47.90;;;;;;5022865;28;20024;-74
2021/04/21 09:52:22;;;;;;;7.60;6.45;;;18.80;47.10;;;;;;5030652;28;20037;-74
2021/04/21 09:54:50;;;;;;;17.45;7.13;;;18.10;49.70;;;;;;5016669;28;20037;-73
2021/04/21 09:57:17;;;;;;;11.32;6.38;;;18.30;46.20;;;;;;5020746;28;20026;-74
2021/04/21 09:59:55;;;;;;;19.27;6.78;;;18.80;46.00;;;;;;5022723;28;20409;-74
2021/04/21 10:02:41;;;;;;;11.48;6.43;;;19.10;44.00;;;;;;5023927;28;20025;-74
2021/04/21 10:05:32;;;;;;;8.50;6.57;;;19.50;44.00;;;;;;5026914;28;20544;-73
2021/04/21 10:08:11;;;;;;;27.17;5.97;;;19.30;43.60;;;;;;5017573;28;20022;-72
2021/04/21 10:10:38;;;;;;;13.35;10.00;;;19.30;47.70;;;;;;5016337;28;20280;-72
2021/04/21 10:13:20;;;;;;;12.65;8.43;;;19.60;45.50;;;;;;5018642;28;20048;-71
2021/04/21 10:15:50;;;;;;;12.43;9.23;;;19.80;43.90;;;;;;5019617;28;20112;-70
2021/04/21 10:18:16;;;;;;;11.25;8.52;;;19.70;44.90;;;;;;5020874;28;20030;-71
2021/04/21 10:20:43;;;;;;;13.52;8.20;;;19.70;44.80;;;;;;5019081;28;20044;-71
2021/04/21 10:23:12;;;;;;;11.23;7.95;;;19.80;45.80;;;;;;5016217;28;20032;-70
2021/04/21 10:25:40;;;;;;;20.92;9.68;;;19.90;43.50;;;;;;5026801;28;20056;-70
2021/04/21 10:28:08;;;;;;;12.98;7.80;;;20.00;44.30;;;;;;5031923;28;20079;-72
2021/04/21 10:30:37;;;;;;;20.60;7.55;;;19.70;44.10;;;;;;5023553;28;20496;-72
2021/04/21 10:33:04;;;;;;;9.90;7.43;;;19.70;44.40;;;;;;5020179;28;20492;-72
2021/04/21 10:35:30;;;;;;;11.52;7.00;;;20.20;45.30;;;;;;5003051;28;20044;-72
2021/04/21 10:37:57;;;;;;;8.40;6.30;;;20.80;45.10;;;;;;5018800;28;20029;-72
2021/04/21 10:40:31;;;;;;;19.80;8.10;;;20.10;43.30;;;;;;5029495;28;20151;-72
2021/04/21 10:43:02;;;;;;;12.32;7.25;;;19.10;45.00;;;;;;5021792;28;20026;-72
2021/04/21 10:45:29;;;;;;;12.23;6.97;;;18.50;45.20;;;;;;5008767;28;20025;-72
2021/04/21 10:47:57;;;;;;;7.45;6.22;;;18.00;46.30;;;;;;5018781;28;20086;-72
2021/04/21 10:50:49;;;;;;;12.25;6.75;;;17.20;47.50;;;;;;5020131;28;20026;-72
2021/04/21 10:53:20;;;;;;;8.45;6.68;;;16.80;49.20;;;;;;5024238;28;20069;-73
2021/04/21 10:55:46;;;;;;;11.88;8.10;;;16.60;49.30;;;;;;5027962;28;20040;-73
2021/04/21 10:58:13;;;;;;;10.25;6.93;;;16.50;50.00;;;;;;5021317;28;20418;-73
2021/04/21 11:00:44;;;;;;;11.30;6.68;;;16.50;50.30;;;;;;5021910;28;20119;-73
2021/04/21 11:03:15;;;;;;;9.83;6.43;;;16.60;49.60;;;;;;5021185;28;20038;-72
2021/04/21 11:06:03;;;;;;;16.17;7.80;;;17.60;49.40;;;;;;5024859;28;20279;-73
2021/04/21 11:08:50;;;;;;;10.55;6.95;;;18.70;47.20;;;;;;5014547;28;20036;-73
2021/04/21 11:11:16;;;;;;;12.45;7.50;;;19.30;45.60;;;;;;5009856;28;20056;-73
2021/04/21 11:13:47;;;;;;;13.63;7.00;;;20.10;44.10;;;;;;5024178;28;20021;-72
2021/04/21 11:16:12;;;;;;;15.15;7.13;;;20.40;43.40;;;;;;5020015;28;20028;-73
2021/04/21 11:18:40;;;;;;;16.92;7.53;;;20.60;42.90;;;;;;5022328;28;20021;-73
2021/04/21 11:21:09;;;;;;;17.85;6.65;;;20.20;43.10;;;;;;5019577;28;20030;-73
2021/04/21 11:24:01;;;;;;;10.25;6.78;;;20.60;42.30;;;;;;5029811;28;20076;-73
2021/04/21 11:26:35;;;;;;;13.00;7.80;;;20.90;40.70;;;;;;5011789;28;20472;-72
2021/04/21 11:29:22;;;;;;;11.05;6.57;;;20.50;42.50;;;;;;5019512;28;20444;-73
2021/04/21 11:31:53;;;;;;;11.88;8.80;;;20.70;42.70;;;;;;4995480;28;20034;-73
2021/04/21 11:34:34;;;;;;;14.07;9.18;;;20.60;43.70;;;;;;5014869;28;20057;-72
2021/04/21 11:37:08;;;;;;;13.00;8.23;;;20.20;43.50;;;;;;5020902;28;20403;-72
2021/04/21 11:39:50;;;;;;;10.85;7.82;;;19.50;45.40;;;;;;5018149;28;20026;-72
2021/04/21 11:42:36;;;;;;;13.02;8.73;;;19.20;45.80;;;;;;5012277;28;20457;-72
2021/04/21 11:45:11;;;;;;;11.98;5.63;;;18.70;47.10;;;;;;5024358;28;20513;-72
2021/04/21 11:47:41;;;;;;;28.20;8.75;;;18.50;45.80;;;;;;5028750;28;20370;-72
2021/04/21 11:50:16;;;;;;;13.25;7.78;;;18.00;47.20;;;;;;5018114;28;20025;-72
2021/04/21 11:52:46;;;;;;;33.60;8.38;;;17.70;48.60;;;;;;5022972;28;20092;-72
2021/04/21 11:55:39;;;;;;;11.55;6.97;;;17.50;49.40;;;;;;5026700;28;20025;-72
2021/04/21 11:58:26;;;;;;;8.25;6.28;;;17.40;49.20;;;;;;5015612;28;20520;-72
2021/04/21 12:00:57;;;;;;;11.60;6.53;;;18.20;47.20;;;;;;5022498;28;20517;-72
2021/04/21 12:03:35;;;;;;;9.40;7.60;;;18.80;46.80;;;;;;5020530;28;20030;-72
2021/04/21 12:06:09;;;;;;;12.30;7.10;;;18.90;45.50;;;;;;5022379;28;20018;-72
2021/04/21 12:08:39;;;;;;;18.25;7.43;;;19.10;46.30;;;;;;5025409;28;20060;-72
2021/04/21 12:11:06;;;;;;;8.43;6.03;;;19.40;44.80;;;;;;5022987;28;20077;-72
2021/04/21 12:13:39;;;;;;;11.45;7.03;;;19.30;44.40;;;;;;5018019;28;20545;-72
2021/04/21 12:16:10;;;;;;;17.70;6.55;;;19.50;44.80;;;;;;5018017;28;20056;-73
2021/04/21 12:18:48;;;;;;;12.55;7.15;;;19.60;43.70;;;;;;5023937;28;20030;-72
2021/04/21 12:21:14;;;;;;;8.80;6.25;;;19.30;43.30;;;;;;5036535;28;20079;-72
2021/04/21 12:23:41;;;;;;;7.80;6.13;;;18.70;45.50;;;;;;5021829;28;20430;-73
2021/04/21 12:26:17;;;;;;;12.73;6.72;;;19.10;45.00;;;;;;5024386;28;20045;-72
2021/04/21 12:28:46;;;;;;;11.48;5.72;;;19.40;44.80;;;;;;5023164;28;20018;-72
2021/04/21 12:31:12;;;;;;;14.80;6.13;;;19.30;44.20;;;;;;5021250;28;20018;-73
2021/04/21 12:33:38;;;;;;;7.75;5.03;;;19.20;43.00;;;;;;5026269;28;20108;-72
2021/04/21 12:36:05;;;;;;;11.50;5.03;;;19.10;43.40;;;;;;5024623;28;20156;-72
2021/04/21 12:38:34;;;;;;;6.72;5.00;;;19.10;42.00;;;;;;5027558;28;20022;-73
2021/04/21 12:41:03;;;;;;;14.82;4.80;;;18.90;42.10;;;;;;5026560;28;20496;-73
2021/04/21 12:43:34;;;;;;;10.35;4.63;;;18.70;43.30;;;;;;5026941;28;20051;-73
2021/04/21 12:46:18;;;;;;;4.80;4.25;;;18.40;44.50;;;;;;5026147;28;20050;-72
2021/04/21 12:48:52;;;;;;;5.60;4.00;;;18.10;42.50;;;;;;5031782;28;20060;-72
2021/04/21 12:51:23;;;;;;;9.73;3.50;;;17.80;42.60;;;;;;5028023;28;20033;-72
2021/04/21 12:53:51;;;;;;;7.55;3.80;;;17.70;41.50;;;;;;5017411;28;20026;-73
2021/04/21 12:56:17;;;;;;;16.10;4.93;;;17.80;41.20;;;;;;5025582;28;20055;-72
2021/04/21 12:58:46;;;;;;;6.60;4.07;;;18.20;41.30;;;;;;5022483;28;20092;-72
2021/04/21 13:01:13;;;;;;;7.30;4.93;;;18.30;41.10;;;;;;5021288;28;20523;-72
2021/04/21 13:03:54;;;;;;;10.45;4.07;;;18.40;41.10;;;;;;5017255;28;20018;-72
2021/04/21 13:06:41;;;;;;;11.13;4.10;;;18.20;41.70;;;;;;5011412;28;20104;-72
2021/04/21 13:09:17;;;;;;;4.30;3.30;;;18.10;40.70;;;;;;5021062;28;20033;-72
2021/04/21 13:11:48;;;;;;;28.73;4.88;;;18.10;40.80;;;;;;5013045;28;20121;-72
2021/04/21 13:14:15;;;;;;;14.75;4.95;;;18.00;41.50;;;;;;5025696;28;20433;-72
2021/04/21 13:16:50;;;;;;;9.32;4.22;;;17.90;41.20;;;;;;5005925;28;20064;-72